Hillsdale, New York
Current Conditions -  °F | °C
As of 11:54 PM on Wednesday 22 Oct 2014 (Local Time) from KPSF Reporting Station
Moderate Rain Moderate Rain  
Wind Chill: 43°   Ceiling: 1300
Heat Index: 47°   Visibility: 5mi
Dew Point: 45°   Wind: 9mph
Humidity: 93%   Direction: 40°NE
Pressure: 29.84"   Gusts: NA
Location:  42.18°N, 73.52°W
Report Text: KPSF 230354Z AUTO 04008KT 5SM RA BR BKN013 OVC020 08/07 A2984 RMK AO2 RAB0257 SLP099 P0005 T00830072
Loading
Personal Weather Stations






























Interactive Weather Map
Tropical Storm Tracking
New forecast layout! Learn more

10-Day Weather Forecast

Advertisements
Track Severe Weather on mobile